Time;durP1;ratioP1;P1;durP2;ratioP2;P2;SDS_P1;SDS_P2;PMS_P1;PMS_P2;Temp;Humidity;BMP_temperature;BMP_pressure;BME280_temperature;BME280_humidity;BME280_pressure;Samples;Min_cycle;Max_cycle;Signal;HPM_P1;HPM_P2
2022/06/11 00:00:21;;;;;;;7.20;3.33;;;14.10;99.90;;;13.85;100.00;97823.75;5024689;28;20033;-38
2022/06/11 00:02:47;;;;;;;5.10;3.20;;;14.10;99.90;;;13.86;100.00;97835.22;5027099;28;20052;-38
2022/06/11 00:05:13;;;;;;;7.45;3.70;;;14.00;99.90;;;13.80;100.00;97830.19;5024458;28;20032;-38
2022/06/11 00:07:39;;;;;;;7.63;3.40;;;14.00;99.90;;;13.78;100.00;97837.34;5020886;28;20026;-38
2022/06/11 00:10:06;;;;;;;5.20;3.00;;;14.00;99.90;;;13.75;100.00;97833.91;5026260;28;20033;-38
2022/06/11 00:12:32;;;;;;;5.10;3.03;;;14.00;99.90;;;13.73;100.00;97832.25;5027398;28;20425;-39
2022/06/11 00:14:59;;;;;;;5.50;3.40;;;13.90;99.90;;;13.71;100.00;97834.06;5024675;28;20049;-38
2022/06/11 00:17:25;;;;;;;6.38;3.70;;;13.90;99.90;;;13.69;100.00;97827.97;5026170;28;20026;-38
2022/06/11 00:19:52;;;;;;;7.95;3.95;;;13.90;99.90;;;13.67;100.00;97828.03;5021328;28;20026;-38
2022/06/11 00:22:21;;;;;;;8.38;3.83;;;13.80;99.90;;;13.65;100.00;97826.41;5019474;28;20029;-38
2022/06/11 00:24:47;;;;;;;7.53;3.35;;;13.90;99.90;;;13.63;100.00;97833.56;5022332;28;20022;-38
2022/06/11 00:27:18;;;;;;;8.68;3.63;;;13.80;99.90;;;13.60;100.00;97836.31;5029283;28;20049;-38
2022/06/11 00:29:45;;;;;;;5.88;3.53;;;13.80;99.90;;;13.52;100.00;97821.63;5024078;28;20029;-38
2022/06/11 00:32:13;;;;;;;5.47;3.78;;;13.80;99.90;;;13.55;100.00;97831.25;5022199;28;20032;-38
2022/06/11 00:34:41;;;;;;;4.60;3.13;;;13.70;99.90;;;13.53;100.00;97830.41;5020890;28;20087;-38
2022/06/11 00:37:08;;;;;;;4.18;2.80;;;13.70;99.90;;;13.48;100.00;97825.31;5025282;28;20057;-38
2022/06/11 00:39:37;;;;;;;8.05;3.30;;;13.70;99.90;;;13.46;100.00;97829.84;5021855;28;20029;-38
2022/06/11 00:42:11;;;;;;;3.38;2.92;;;13.70;99.90;;;13.45;100.00;97824.59;5027675;28;20014;-38
2022/06/11 00:44:37;;;;;;;5.43;2.85;;;13.70;99.90;;;13.43;100.00;97829.09;5007357;28;20030;-38
2022/06/11 00:47:23;;;;;;;4.65;3.25;;;13.60;99.90;;;13.41;100.00;97834.47;5028212;28;20056;-38
2022/06/11 00:49:54;;;;;;;4.28;2.95;;;13.60;99.90;;;13.40;100.00;97835.38;5041178;28;20029;-38
2022/06/11 00:52:44;;;;;;;6.32;2.85;;;13.60;99.90;;;13.41;100.00;97829.16;5025251;28;20204;-38
2022/06/11 00:55:22;;;;;;;5.35;2.92;;;13.60;99.90;;;13.39;100.00;97824.81;5016568;28;20512;-38
2022/06/11 00:57:56;;;;;;;4.72;2.78;;;13.60;99.90;;;13.40;100.00;97826.56;5028383;28;20483;-38
2022/06/11 01:00:46;;;;;;;3.10;2.50;;;13.60;99.90;;;13.21;100.00;97797.28;5022274;28;20030;-38
2022/06/11 01:03:18;;;;;;;3.88;2.70;;;13.60;99.90;;;13.31;100.00;97811.91;5021845;28;20125;-38
2022/06/11 01:05:50;;;;;;;5.07;2.85;;;13.60;99.90;;;13.33;100.00;97824.19;5019698;28;20029;-38
2022/06/11 01:08:34;;;;;;;3.28;2.50;;;13.60;99.90;;;13.27;100.00;97815.59;5025298;28;20551;-38
2022/06/11 01:11:39;;;;;;;4.10;2.60;;;13.60;99.90;;;13.27;100.00;97818.25;5046790;28;20116;-38
2022/06/11 01:14:31;;;;;;;3.28;2.50;;;13.50;99.90;;;13.24;100.00;97818.34;5035620;28;20087;-38
2022/06/11 01:17:10;;;;;;;5.72;2.58;;;13.50;99.90;;;13.23;100.00;97816.66;5018093;28;20025;-38
2022/06/11 01:20:03;;;;;;;3.97;2.40;;;13.50;99.90;;;13.20;100.00;97817.63;5023128;28;20076;-38
2022/06/11 01:23:23;;;;;;;3.58;2.15;;;13.50;99.90;;;13.18;100.00;97819.47;5021030;28;20099;-38
2022/06/11 01:26:37;;;;;;;3.78;2.40;;;13.40;99.90;;;13.16;100.00;97819.53;5024065;28;20021;-38
2022/06/11 01:29:40;;;;;;;3.92;2.45;;;13.40;99.90;;;13.12;100.00;97819.75;5038443;28;20200;-38
2022/06/11 01:32:33;;;;;;;3.47;2.40;;;13.40;99.90;;;13.09;100.00;97820.69;5011268;28;20037;-38
2022/06/11 01:35:17;;;;;;;3.95;2.67;;;13.30;99.90;;;13.07;100.00;97822.56;5026004;28;20025;-38
2022/06/11 01:38:10;;;;;;;4.75;2.90;;;13.30;99.90;;;13.03;100.00;97823.63;5027297;28;20053;-38
2022/06/11 01:41:05;;;;;;;4.15;2.78;;;13.30;99.90;;;13.00;100.00;97821.06;5012930;28;20084;-38
2022/06/11 01:43:40;;;;;;;4.55;2.90;;;13.30;99.90;;;12.97;100.00;97821.19;5023568;28;20029;-38
2022/06/11 01:46:20;;;;;;;3.78;3.10;;;13.20;99.90;;;12.96;100.00;97815.03;5026421;28;20111;-38
2022/06/11 01:49:21;;;;;;;4.55;2.67;;;13.20;99.90;;;12.91;100.00;97814.34;5026289;28;20029;-38
2022/06/11 01:52:06;;;;;;;4.32;2.80;;;13.20;99.90;;;12.89;100.00;97815.34;5002738;28;20118;-38
2022/06/11 01:54:46;;;;;;;4.78;3.03;;;13.10;99.90;;;12.86;100.00;97818.97;5016691;28;20017;-38
2022/06/11 01:57:54;;;;;;;4.15;2.70;;;13.10;99.90;;;12.83;100.00;97811.19;5024977;28;20025;-38
2022/06/11 02:00:36;;;;;;;4.50;2.28;;;13.10;99.90;;;12.78;100.00;97805.19;5026117;28;20536;-38
2022/06/11 02:03:34;;;;;;;3.40;2.67;;;13.10;99.90;;;12.77;100.00;97812.25;5037579;28;20036;-38
2022/06/11 02:06:30;;;;;;;4.63;2.97;;;13.00;99.90;;;12.79;100.00;97813.06;5020935;28;20059;-38
2022/06/11 02:09:27;;;;;;;6.40;3.03;;;13.10;99.90;;;12.78;100.00;97806.03;5024804;28;20029;-38
2022/06/11 02:12:07;;;;;;;4.50;2.60;;;13.00;99.90;;;12.78;100.00;97810.50;5005874;28;20025;-38
2022/06/11 02:14:44;;;;;;;3.67;2.80;;;13.00;99.90;;;12.75;100.00;97811.44;5013709;28;20033;-38
2022/06/11 02:17:21;;;;;;;4.95;2.70;;;13.00;99.90;;;12.72;100.00;97811.59;5024707;28;20029;-38
2022/06/11 02:20:06;;;;;;;4.70;2.63;;;13.00;99.90;;;12.70;100.00;97804.63;5021761;28;20432;-38
2022/06/11 02:22:41;;;;;;;4.10;2.75;;;12.90;99.90;;;12.66;100.00;97803.88;5019905;28;20028;-38
2022/06/11 02:25:32;;;;;;;4.55;2.53;;;12.90;99.90;;;12.65;100.00;97804.81;5024678;28;20018;-38
2022/06/11 02:28:03;;;;;;;3.67;2.40;;;12.90;99.90;;;12.66;100.00;97810.97;5028695;28;20574;-38
2022/06/11 02:30:31;;;;;;;4.20;2.58;;;12.90;99.90;;;12.59;100.00;97800.59;5015709;28;20037;-38
2022/06/11 02:32:58;;;;;;;6.63;2.60;;;12.90;99.90;;;12.62;100.00;97815.50;5017935;28;20021;-38
2022/06/11 02:35:47;;;;;;;2.70;2.30;;;12.90;99.90;;;12.57;100.00;97807.72;5020800;28;20026;-38
2022/06/11 02:38:18;;;;;;;2.88;2.22;;;12.90;99.90;;;12.56;100.00;97810.44;5020967;28;20025;-38
2022/06/11 02:40:53;;;;;;;2.60;2.00;;;12.80;99.90;;;12.52;100.00;97812.34;5026356;28;20029;-38
2022/06/11 02:43:19;;;;;;;2.70;2.20;;;12.80;99.90;;;12.50;100.00;97811.53;5025500;28;20503;-38
2022/06/11 02:45:46;;;;;;;3.22;2.20;;;12.80;99.90;;;12.45;100.00;97794.13;5023122;28;20026;-38
2022/06/11 02:48:14;;;;;;;2.63;2.17;;;12.70;99.90;;;12.47;100.00;97797.56;5025511;28;20056;-38
2022/06/11 02:50:42;;;;;;;4.20;1.80;;;12.70;99.90;;;12.46;100.00;97804.66;5025590;28;20053;-38
2022/06/11 02:53:09;;;;;;;5.55;2.20;;;12.70;99.90;;;12.47;100.00;97810.78;5021881;28;20587;-38
2022/06/11 02:55:39;;;;;;;4.45;2.10;;;12.70;99.90;;;12.47;100.00;97814.31;5024232;28;20452;-38
2022/06/11 02:58:07;;;;;;;2.28;1.92;;;12.70;99.90;;;12.49;100.00;97814.22;5019342;28;20025;-38
2022/06/11 03:00:39;;;;;;;4.40;2.20;;;12.70;99.90;;;12.50;100.00;97810.69;5025187;28;20052;-38
2022/06/11 03:03:07;;;;;;;3.55;2.65;;;12.80;99.90;;;12.50;100.00;97813.31;5025488;28;20087;-38
2022/06/11 03:05:34;;;;;;;3.55;2.17;;;12.80;99.90;;;12.54;100.00;97805.22;5019243;28;20054;-38
2022/06/11 03:08:02;;;;;;;2.42;1.92;;;12.80;99.90;;;12.54;100.00;97818.47;5026200;28;20030;-38
2022/06/11 03:10:30;;;;;;;2.72;2.05;;;12.80;99.90;;;12.55;100.00;97816.66;5026480;28;20025;-38
2022/06/11 03:12:56;;;;;;;2.75;1.95;;;12.80;99.90;;;12.54;100.00;97810.53;5024110;28;20076;-38
2022/06/11 03:15:24;;;;;;;2.65;1.98;;;12.80;99.90;;;12.52;100.00;97814.13;5019744;28;20045;-38
2022/06/11 03:17:52;;;;;;;3.28;2.22;;;12.80;99.90;;;12.52;100.00;97819.41;5016328;28;20493;-38
2022/06/11 03:20:22;;;;;;;3.15;2.10;;;12.80;99.90;;;12.34;100.00;97802.47;5022479;28;20026;-38
2022/06/11 03:22:49;;;;;;;4.93;2.22;;;12.80;99.90;;;12.48;100.00;97823.13;5025191;28;20930;-38
2022/06/11 03:25:16;;;;;;;3.35;1.90;;;12.70;99.90;;;12.47;100.00;97831.94;5023540;28;20025;-38
2022/06/11 03:27:43;;;;;;;2.45;1.83;;;12.80;99.90;;;12.23;100.00;97784.34;5027677;28;20029;-38
2022/06/11 03:30:10;;;;;;;4.10;2.20;;;12.70;99.90;;;12.45;100.00;97826.72;5028203;28;20033;-38
2022/06/11 03:32:36;;;;;;;5.95;2.10;;;12.70;99.90;;;12.45;100.00;97828.50;5027325;28;20462;-38
2022/06/11 03:35:02;;;;;;;5.20;2.08;;;12.70;99.90;;;12.45;100.00;97825.88;5022667;28;20060;-38
2022/06/11 03:37:28;;;;;;;3.22;2.17;;;12.70;99.90;;;12.45;100.00;97831.16;5029992;28;20112;-38
2022/06/11 03:39:54;;;;;;;4.07;2.40;;;12.70;99.90;;;12.45;100.00;97839.09;5022554;28;20112;-38
2022/06/11 03:42:20;;;;;;;3.03;1.92;;;12.80;99.90;;;12.48;100.00;97838.97;5030317;28;20033;-38
2022/06/11 03:44:45;;;;;;;3.58;2.20;;;12.70;99.90;;;12.49;100.00;97835.41;5027896;28;20037;-38
2022/06/11 03:47:12;;;;;;;3.53;2.17;;;12.70;99.90;;;12.50;100.00;97838.00;5028885;28;20021;-38
2022/06/11 03:49:37;;;;;;;2.78;1.90;;;12.70;99.90;;;12.50;100.00;97840.63;5014311;28;20029;-38
2022/06/11 03:52:05;;;;;;;3.22;2.10;;;12.80;99.90;;;12.46;100.00;97831.09;5025122;28;20422;-38
2022/06/11 03:54:31;;;;;;;3.00;2.20;;;12.80;99.90;;;12.55;100.00;97848.41;5017455;28;20116;-38
2022/06/11 03:56:57;;;;;;;2.42;1.95;;;12.80;99.90;;;12.59;100.00;97855.31;5027572;28;20104;-38
2022/06/11 03:59:23;;;;;;;2.45;1.95;;;12.80;99.90;;;12.58;100.00;97843.00;5026312;28;20292;-38
2022/06/11 04:01:50;;;;;;;3.28;2.10;;;12.90;99.90;;;12.67;100.00;97853.25;5022024;28;20033;-38
2022/06/11 04:04:19;;;;;;;3.30;2.00;;;12.90;99.90;;;12.69;100.00;97854.03;5029255;28;20021;-38
2022/06/11 04:06:51;;;;;;;3.05;2.00;;;12.90;99.90;;;12.75;100.00;97856.44;5020911;28;20026;-38
2022/06/11 04:09:30;;;;;;;5.80;2.40;;;13.00;99.90;;;12.80;100.00;97851.00;5029052;28;20029;-38
2022/06/11 04:11:56;;;;;;;4.18;2.10;;;13.10;99.90;;;12.89;100.00;97853.28;5025637;28;20061;-38
2022/06/11 04:14:22;;;;;;;4.78;2.38;;;13.20;99.90;;;13.01;100.00;97862.53;5016720;28;20029;-39
2022/06/11 04:17:12;;;;;;;4.68;2.38;;;13.30;99.90;;;13.10;100.00;97856.88;5029144;28;20053;-38
2022/06/11 04:19:44;;;;;;;5.85;2.00;;;13.40;99.90;;;13.08;100.00;97840.19;5026187;28;20053;-38
2022/06/11 04:22:09;;;;;;;3.53;2.20;;;13.50;99.90;;;13.30;100.00;97861.34;5022108;28;20075;-38
2022/06/11 04:24:36;;;;;;;3.78;2.00;;;13.60;99.90;;;13.39;100.00;97865.47;5021094;28;20371;-38
2022/06/11 04:27:05;;;;;;;3.15;1.90;;;13.60;99.90;;;13.46;100.00;97860.75;5028177;28;20091;-38
2022/06/11 04:29:36;;;;;;;2.90;1.92;;;13.70;99.90;;;13.54;100.00;97862.16;5019294;28;20436;-38
2022/06/11 04:32:06;;;;;;;4.63;2.20;;;13.80;99.90;;;13.62;100.00;97869.81;5026886;28;20052;-38
2022/06/11 04:34:32;;;;;;;4.00;1.95;;;13.90;99.90;;;13.69;100.00;97865.09;5027621;28;20374;-38
2022/06/11 04:36:59;;;;;;;4.03;2.40;;;13.90;99.90;;;13.77;100.00;97873.59;5028645;28;20031;-38
2022/06/11 04:39:28;;;;;;;3.60;2.03;;;14.00;99.90;;;13.86;99.96;97869.69;5022679;28;20080;-38
2022/06/11 04:41:55;;;;;;;3.13;1.85;;;14.10;99.90;;;13.93;99.67;97858.75;5025784;28;20052;-38
2022/06/11 04:44:22;;;;;;;4.75;2.00;;;14.20;99.90;;;14.03;99.12;97868.97;5020303;28;20026;-38
2022/06/11 04:46:48;;;;;;;3.85;1.98;;;14.30;99.90;;;14.08;98.30;97859.00;5027832;28;20033;-38
2022/06/11 04:49:14;;;;;;;3.33;2.08;;;14.40;99.90;;;14.25;97.44;97867.09;5028137;28;20104;-38
2022/06/11 04:51:41;;;;;;;3.20;1.88;;;14.50;99.90;;;14.36;96.96;97868.41;5029311;28;20033;-38
2022/06/11 04:54:07;;;;;;;3.65;2.10;;;14.60;99.90;;;14.47;96.89;97874.09;5021948;28;20037;-38
2022/06/11 04:56:33;;;;;;;3.17;2.10;;;14.60;99.90;;;14.74;96.00;97871.16;5024464;28;20029;-38
2022/06/11 04:58:59;;;;;;;3.45;2.10;;;14.80;99.90;;;15.21;94.18;97873.34;5028561;28;20022;-38
2022/06/11 05:01:26;;;;;;;2.63;1.90;;;15.10;99.90;;;15.88;91.49;97877.19;5025979;28;20059;-38
2022/06/11 05:03:53;;;;;;;2.00;1.50;;;15.50;99.90;;;16.88;87.53;97877.25;5026464;28;20064;-38
2022/06/11 05:06:23;;;;;;;2.33;1.60;;;16.10;99.90;;;17.99;82.25;97883.47;5023706;28;20059;-38
2022/06/11 05:08:49;;;;;;;1.48;1.35;;;16.80;99.90;;;19.29;75.34;97879.91;5028831;28;20028;-38
2022/06/11 05:11:15;;;;;;;2.30;1.50;;;17.70;99.90;;;20.40;67.22;97888.56;5026990;28;20013;-39
2022/06/11 05:13:40;;;;;;;1.85;1.45;;;18.60;99.90;;;21.49;61.04;97891.56;5021433;28;20477;-39
2022/06/11 05:16:06;;;;;;;4.80;1.70;;;19.40;99.90;;;22.59;55.59;97894.09;5026833;28;20021;-39
2022/06/11 05:18:34;;;;;;;3.38;1.90;;;20.30;99.90;;;23.35;50.17;97892.53;5021558;28;20201;-39
2022/06/11 05:21:01;;;;;;;2.83;1.92;;;21.00;99.90;;;24.07;47.56;97896.50;5025290;28;20026;-39
2022/06/11 05:23:27;;;;;;;2.88;1.70;;;21.60;99.90;;;24.55;45.44;97892.50;5022456;28;20025;-38
2022/06/11 05:25:53;;;;;;;2.03;1.55;;;22.20;99.70;;;25.05;43.84;97897.13;5029753;28;20025;-39
2022/06/11 05:28:28;;;;;;;2.83;1.60;;;22.60;97.70;;;25.38;42.85;97905.94;5021651;28;20033;-39
2022/06/11 05:30:56;;;;;;;2.13;1.58;;;23.00;96.40;;;25.22;43.27;97906.44;5036404;28;20097;-39
2022/06/11 05:33:23;;;;;;;1.73;1.40;;;23.10;95.50;;;24.64;44.24;97905.16;5027239;28;20116;-39
2022/06/11 05:35:50;;;;;;;2.10;1.30;;;22.90;95.20;;;23.88;45.74;97909.78;5017111;28;20024;-36
2022/06/11 05:38:24;;;;;;;2.75;1.80;;;22.60;95.20;;;22.97;47.23;97909.03;5027428;28;20024;-36
2022/06/11 05:40:52;;;;;;;1.85;1.40;;;22.10;95.10;;;22.20;49.97;97913.16;5027381;28;20555;-36
2022/06/11 05:43:18;;;;;;;2.17;1.67;;;21.50;96.50;;;21.62;53.65;97915.69;5026300;28;20083;-36
2022/06/11 05:45:58;;;;;;;2.20;1.30;;;21.10;98.40;;;21.14;57.25;97905.72;5019650;28;20108;-36
2022/06/11 05:48:31;;;;;;;2.58;1.42;;;20.70;99.50;;;20.69;57.92;97916.06;5017859;28;20052;-36
2022/06/11 05:50:58;;;;;;;2.15;1.30;;;20.40;99.60;;;20.40;58.34;97915.34;5021624;28;20087;-36
2022/06/11 05:53:28;;;;;;;4.78;1.50;;;20.20;99.70;;;20.11;60.99;97920.88;5019966;28;20521;-36
2022/06/11 05:55:55;;;;;;;3.65;1.60;;;20.00;99.90;;;19.83;63.74;97920.06;5042966;23;20408;-45
2022/06/11 05:58:38;;;;;;;3.95;1.90;;;19.70;99.90;;;19.61;64.97;97917.91;5041219;28;20021;-47
2022/06/11 06:01:05;;;;;;;2.72;1.60;;;19.50;99.90;;;19.45;65.96;97911.81;5042319;28;20461;-47
2022/06/11 06:03:31;;;;;;;3.17;1.70;;;19.40;99.90;;;19.29;64.68;97911.09;5046003;28;20020;-44
2022/06/11 06:05:57;;;;;;;2.60;1.70;;;19.30;99.90;;;19.08;66.15;97917.72;5038691;28;20535;-47
2022/06/11 06:08:23;;;;;;;6.03;1.80;;;19.20;99.90;;;18.93;67.89;97917.81;5012192;28;20239;-47
2022/06/11 06:10:49;;;;;;;2.00;1.55;;;19.00;99.90;;;18.92;68.30;97921.47;5021203;28;20115;-47
2022/06/11 06:15:58;;;;;;;6.78;1.85;;;18.90;99.90;;;18.89;67.89;97919.84;5026773;28;20033;-49
2022/06/11 06:18:24;;;;;;;2.25;1.52;;;18.90;99.90;;;18.94;68.58;97924.91;5022978;28;20034;-48
2022/06/11 06:20:50;;;;;;;4.55;2.00;;;18.90;99.90;;;18.94;68.03;97922.22;5032724;28;20033;-48
2022/06/11 06:23:16;;;;;;;2.88;1.83;;;19.00;99.90;;;18.94;68.27;97911.53;5028176;28;20509;-44
2022/06/11 06:25:42;;;;;;;2.45;1.65;;;19.00;99.90;;;19.01;68.01;97934.25;5029687;28;20116;-45
2022/06/11 06:28:08;;;;;;;1.73;1.38;;;19.00;99.90;;;19.12;68.15;97925.56;5021171;28;20068;-44
2022/06/11 06:30:34;;;;;;;3.25;1.60;;;19.10;99.90;;;19.20;67.83;97929.47;5020196;28;20060;-47
2022/06/11 06:33:00;;;;;;;2.60;1.70;;;19.20;99.90;;;19.35;66.90;97932.97;5020317;28;20769;-46
2022/06/11 06:35:25;;;;;;;2.55;1.60;;;19.30;99.90;;;19.49;66.63;97932.09;5026645;28;20413;-47
2022/06/11 06:37:51;;;;;;;1.67;1.42;;;19.50;99.90;;;19.61;65.30;97931.28;5019219;28;20033;-46
2022/06/11 06:40:17;;;;;;;1.73;1.30;;;19.60;99.90;;;19.72;64.41;97933.28;5016139;28;20022;-47
2022/06/11 06:42:43;;;;;;;2.90;1.30;;;19.80;99.90;;;19.83;63.30;97929.91;5015362;28;20467;-44
2022/06/11 06:45:09;;;;;;;3.80;1.98;;;19.90;99.90;;;19.92;62.14;97928.41;5024117;28;20558;-50
2022/06/11 06:47:35;;;;;;;5.13;1.73;;;20.00;99.90;;;19.95;59.52;97934.44;5014589;28;20041;-45
2022/06/11 06:50:01;;;;;;;1.92;1.50;;;20.10;99.90;;;20.07;60.42;97938.13;5014154;28;20033;-44
2022/06/11 06:52:27;;;;;;;4.32;1.80;;;20.10;99.90;;;20.15;59.00;97932.25;5018229;28;20038;-46
2022/06/11 06:54:53;;;;;;;4.30;1.70;;;20.20;99.90;;;20.21;58.86;97940.72;5014377;28;20022;-47
2022/06/11 06:57:19;;;;;;;3.90;2.08;;;20.30;99.90;;;20.31;59.45;97932.06;5016516;28;20551;-46
2022/06/11 06:59:44;;;;;;;3.03;1.52;;;20.40;99.90;;;20.38;58.64;97931.53;5013355;28;20508;-47
2022/06/11 07:02:12;;;;;;;9.82;1.90;;;20.40;99.70;;;20.49;57.18;97935.28;5020085;28;20033;-46
2022/06/11 07:04:39;;;;;;;2.78;1.80;;;20.50;99.40;;;20.53;56.89;97932.31;5027162;28;20057;-44
2022/06/11 07:07:06;;;;;;;2.63;1.63;;;20.60;99.00;;;20.68;58.07;97930.41;5019290;28;20117;-47
2022/06/11 07:09:31;;;;;;;2.42;1.48;;;20.70;99.40;;;20.81;58.14;97935.78;5022276;28;20034;-45
2022/06/11 07:11:57;;;;;;;4.78;1.70;;;20.80;99.40;;;20.96;57.89;97928.47;5018609;28;20026;-45
2022/06/11 07:14:23;;;;;;;1.85;1.40;;;21.00;99.30;;;21.00;55.63;97927.31;5025382;28;20026;-44
2022/06/11 07:16:54;;;;;;;5.55;1.48;;;21.10;98.20;;;21.03;55.31;97923.53;5022205;28;20446;-47
2022/06/11 07:19:30;;;;;;;3.95;1.80;;;21.10;98.10;;;21.14;55.93;97937.91;5024614;28;20080;-45
2022/06/11 07:22:04;;;;;;;1.92;1.45;;;21.20;98.10;;;21.26;56.55;97925.41;5019304;28;20025;-46
2022/06/11 07:24:32;;;;;;;2.53;1.55;;;21.30;98.30;;;21.30;56.70;97932.28;5023812;28;20021;-44
2022/06/11 07:27:05;;;;;;;5.63;2.10;;;21.40;98.70;;;21.31;55.47;97936.66;5032317;28;20029;-44
2022/06/11 07:29:38;;;;;;;3.08;1.60;;;21.40;98.20;;;21.34;56.14;97930.25;5024928;28;20040;-46
2022/06/11 07:32:10;;;;;;;4.13;1.40;;;21.40;98.50;;;21.37;53.64;97935.38;5023192;28;20060;-44
2022/06/11 07:34:37;;;;;;;2.08;1.40;;;21.40;97.10;;;21.46;54.65;97936.56;5032616;28;20094;-45
2022/06/11 07:37:03;;;;;;;2.28;1.60;;;21.50;97.60;;;21.47;51.78;97935.59;5033174;28;20427;-46
2022/06/11 07:39:29;;;;;;;3.25;1.63;;;21.60;96.40;;;21.56;54.06;97934.94;5022023;28;20500;-46
2022/06/11 07:41:54;;;;;;;2.35;1.70;;;21.60;96.60;;;21.58;50.92;97932.13;5019774;28;20021;-44
2022/06/11 07:44:20;;;;;;;2.15;1.48;;;21.70;95.40;;;21.70;51.22;97933.91;5022997;28;20504;-44
2022/06/11 07:46:46;;;;;;;4.38;1.50;;;21.80;95.70;;;21.76;50.17;97944.19;5019132;28;20299;-46
2022/06/11 07:49:12;;;;;;;4.15;1.65;;;21.80;95.00;;;21.80;50.39;97934.94;5016879;28;20424;-45
2022/06/11 07:51:38;;;;;;;5.43;1.80;;;21.90;94.80;;;21.77;50.91;97940.56;5021748;28;20498;-47
2022/06/11 07:54:04;;;;;;;3.92;1.65;;;21.90;94.90;;;21.76;49.76;97932.59;5024450;28;20469;-47
2022/06/11 07:56:30;;;;;;;2.80;1.52;;;21.90;94.20;;;21.85;50.14;97935.44;5015644;28;20080;-45
2022/06/11 07:58:55;;;;;;;2.35;1.38;;;22.00;94.60;;;21.90;50.27;97941.34;5016944;28;20390;-46
2022/06/11 08:01:21;;;;;;;1.85;1.30;;;22.00;94.20;;;22.02;49.56;97939.56;5029953;28;20026;-44
2022/06/11 08:03:47;;;;;;;3.65;1.55;;;22.10;94.10;;;22.00;46.89;97943.31;5023142;28;20104;-48
2022/06/11 08:06:13;;;;;;;4.18;1.58;;;22.10;92.30;;;22.03;48.02;97943.09;5020977;28;20497;-45
2022/06/11 08:08:39;;;;;;;2.97;1.40;;;22.10;92.40;;;22.15;47.63;97939.50;5015695;28;20478;-44
2022/06/11 08:11:06;;;;;;;6.90;1.70;;;22.10;92.80;;;21.97;48.19;97925.63;5024420;28;20083;-48
2022/06/11 08:13:32;;;;;;;2.33;1.30;;;22.10;92.90;;;21.98;47.49;97937.22;5025669;28;20036;-48
2022/06/11 08:15:59;;;;;;;3.72;1.63;;;22.10;92.20;;;22.01;49.41;97931.63;5018835;28;20104;-46
2022/06/11 08:18:26;;;;;;;1.98;1.40;;;22.10;92.90;;;22.15;49.54;97938.66;5017261;28;20501;-45
2022/06/11 08:20:53;;;;;;;8.07;1.60;;;22.20;93.70;;;22.29;50.30;97935.81;5018823;28;20036;-48
2022/06/11 08:23:21;;;;;;;3.55;1.80;;;22.30;94.00;;;22.35;49.34;97939.84;5024409;28;20064;-45
2022/06/11 08:25:46;;;;;;;4.40;1.52;;;22.40;93.10;;;22.42;48.19;97931.19;5018049;28;20022;-48
2022/06/11 08:28:15;;;;;;;6.45;1.70;;;22.50;92.80;;;22.52;48.93;97931.31;5030519;28;20049;-48
2022/06/11 08:30:42;;;;;;;9.25;1.80;;;22.60;93.00;;;22.63;48.54;97939.44;5019372;28;20026;-47
2022/06/11 08:33:08;;;;;;;2.58;1.50;;;22.70;92.80;;;22.64;47.23;97930.38;5023058;28;20032;-47
2022/06/11 08:35:34;;;;;;;4.75;1.67;;;22.80;91.90;;;22.81;47.27;97942.53;5031100;28;20076;-46
2022/06/11 08:38:03;;;;;;;2.13;1.30;;;22.90;91.90;;;22.90;49.14;97940.94;5017863;28;20080;-45
2022/06/11 08:40:50;;;;;;;3.25;1.60;;;22.90;92.20;;;22.88;47.40;97935.69;5015100;28;20161;-46
2022/06/11 08:43:31;;;;;;;2.90;1.20;;;22.90;91.70;;;22.98;47.01;97937.63;5023922;28;20057;-46
2022/06/11 08:46:10;;;;;;;3.50;1.63;;;23.00;91.40;;;22.79;44.35;97944.47;5012957;28;20026;-45
2022/06/11 08:48:42;;;;;;;3.72;1.60;;;22.90;89.10;;;22.83;46.32;97937.03;5015239;28;20357;-44
2022/06/11 08:51:45;;;;;;;1.75;1.35;;;22.90;90.20;;;22.88;46.33;97937.53;5018977;28;20561;-48
2022/06/11 08:54:20;;;;;;;2.45;1.40;;;22.90;90.70;;;22.97;47.26;97934.09;5014184;28;20116;-45
2022/06/11 08:57:13;;;;;;;5.65;1.55;;;23.00;90.90;;;23.09;47.21;97934.13;5018246;28;20037;-45
2022/06/11 09:00:15;;;;;;;3.38;1.60;;;23.10;91.30;;;23.19;48.99;97940.50;5023386;28;20053;-47
2022/06/11 09:03:03;;;;;;;5.50;1.77;;;23.20;92.30;;;22.93;45.42;97939.84;5032883;28;20033;-45
2022/06/11 09:06:06;;;;;;;7.15;2.10;;;23.10;89.70;;;22.75;45.41;97934.06;5019729;28;20068;-45
2022/06/11 09:09:02;;;;;;;2.70;1.70;;;22.90;89.60;;;22.81;45.85;97930.91;5017731;28;20061;-45
2022/06/11 09:12:11;;;;;;;3.28;1.55;;;22.90;89.80;;;22.94;45.58;97934.34;5012161;28;20041;-44
2022/06/11 09:14:53;;;;;;;7.50;1.90;;;22.90;89.10;;;23.02;47.32;97921.16;5029655;28;20501;-46
2022/06/11 09:17:50;;;;;;;3.20;1.75;;;23.10;90.70;;;23.13;45.87;97925.72;5020020;28;20044;-48
2022/06/11 09:20:47;;;;;;;3.60;1.83;;;23.20;90.60;;;23.03;47.46;97922.00;5018905;28;20034;-48
2022/06/11 09:23:58;;;;;;;2.10;1.40;;;23.10;90.80;;;22.95;46.89;97917.25;5019279;28;20031;-46
2022/06/11 09:26:48;;;;;;;6.35;1.60;;;23.00;90.40;;;23.06;46.48;97924.47;5016297;28;20038;-48
2022/06/11 09:29:28;;;;;;;3.67;1.70;;;23.10;90.40;;;23.06;46.65;97914.56;5017391;28;20021;-46
2022/06/11 09:32:14;;;;;;;3.55;1.50;;;23.10;90.40;;;22.87;46.37;97914.28;5016706;28;20057;-47
2022/06/11 09:35:07;;;;;;;2.90;1.55;;;22.90;89.70;;;22.61;47.27;97919.88;5020792;28;20480;-45
2022/06/11 09:37:59;;;;;;;3.63;1.70;;;22.70;90.70;;;22.57;47.00;97912.16;5010236;28;20038;-48
2022/06/11 09:40:46;;;;;;;3.57;1.93;;;22.60;90.40;;;22.65;47.19;97915.97;5015919;28;20038;-47
2022/06/11 09:43:27;;;;;;;2.97;1.35;;;22.70;90.30;;;22.86;46.20;97917.94;5021280;28;20028;-46
2022/06/11 09:45:58;;;;;;;3.08;1.50;;;22.90;89.90;;;22.90;44.72;97914.06;5032112;28;20030;-46
2022/06/11 09:48:52;;;;;;;3.90;1.85;;;23.00;86.90;;;23.05;45.02;97915.53;5017176;28;20028;-45
2022/06/11 09:51:57;;;;;;;3.97;1.70;;;23.10;87.30;;;23.21;44.79;97922.41;5012940;28;20029;-45
2022/06/11 09:54:54;;;;;;;6.10;1.50;;;23.20;87.90;;;23.26;45.17;97920.19;5009162;28;20117;-44
2022/06/11 09:57:46;;;;;;;3.25;1.58;;;23.30;90.00;;;23.34;44.05;97916.88;5011595;28;20041;-48
2022/06/11 10:00:12;;;;;;;;;;;23.40;86.30;;;23.48;45.92;97921.16;5020407;28;20033;-45
2022/06/11 10:03:30;;;;;;;2.92;1.27;;;23.50;88.50;;;23.66;42.78;97921.47;5015654;28;19924;-46
2022/06/11 10:06:19;;;;;;;6.07;1.85;;;23.70;87.80;;;23.61;42.26;97911.91;5014479;28;20026;-46
2022/06/11 10:08:55;;;;;;;2.80;1.75;;;23.90;82.20;;;23.70;43.32;97921.06;5033639;28;20079;-47
2022/06/11 10:11:33;;;;;;;3.42;1.92;;;23.90;83.40;;;23.79;42.92;97920.31;5018465;28;20052;-46
2022/06/11 10:14:29;;;;;;;3.25;1.80;;;23.90;83.60;;;23.92;42.53;97922.03;5010974;28;20072;-44
2022/06/11 10:17:26;;;;;;;4.90;1.73;;;24.00;83.20;;;24.03;43.42;97919.31;5020905;28;20022;-49
2022/06/11 10:20:17;;;;;;;3.25;1.63;;;24.10;83.60;;;24.11;42.17;97919.50;5031791;28;20517;-45
2022/06/11 10:22:55;;;;;;;7.97;1.67;;;24.30;81.40;;;24.25;42.94;97920.19;5014940;28;20116;-48
2022/06/11 10:25:36;;;;;;;6.18;1.70;;;24.30;82.20;;;24.41;44.23;97923.28;5014027;28;20037;-48
2022/06/11 10:28:08;;;;;;;2.55;1.50;;;24.50;83.90;;;24.54;42.69;97912.34;5019760;28;20030;-46
2022/06/11 10:30:54;;;;;;;3.13;1.77;;;24.60;82.60;;;24.67;41.73;97917.50;5013129;28;20033;-49
2022/06/11 10:33:32;;;;;;;2.13;1.40;;;24.70;81.50;;;24.67;41.86;97917.50;5019613;28;20085;-47
2022/06/11 10:36:10;;;;;;;5.88;1.67;;;24.80;81.60;;;24.72;41.20;97921.53;5019609;28;20021;-47
2022/06/11 10:38:50;;;;;;;4.15;1.80;;;24.80;80.20;;;24.64;42.54;97920.47;5009367;28;20026;-46
2022/06/11 10:42:07;;;;;;;5.10;1.83;;;24.80;80.90;;;24.69;42.28;97921.81;5022141;28;20053;-47
2022/06/11 10:44:46;;;;;;;3.75;1.60;;;24.80;81.10;;;24.75;42.09;97915.03;5009353;28;20065;-47
2022/06/11 10:47:27;;;;;;;5.07;1.75;;;24.90;81.30;;;24.61;41.01;97907.28;5015367;28;20478;-48
2022/06/11 10:50:13;;;;;;;2.85;1.67;;;24.80;79.10;;;24.40;42.39;97908.09;5015691;28;20545;-48